SVVA/VLN METAR and TAF weather

Enter ICAO airport designator
Station Type Date Time Source
SVVA METAR 2023/09/28 17:03 UTC NOAA

SVVA 281703Z AUTO 11004KT NCD 36/22 Q1011


Station Type Date Time Source
SVVA Decoded METAR 2023/09/28 17:03 UTC NOAA

Valencia, Venezuela (SVVA) 10-10N 067-56W 431M
Sep 28, 2023 - 01:03 PM EDT / 2023.09.28 1703 UTC
Wind: from the ESE (110 degrees) at 5 MPH (4 KT):0
Temperature: 96 F (36 C)
Heat index: 103.5 F (39.7 C):1
Dew Point: 71 F (22 C)
Relative Humidity: 44%
Pressure (altimeter): 29.85 in. Hg (1011 hPa)
ob: SVVA 281703Z AUTO 11004KT NCD 36/22 Q1011
cycle: 17

Station Type Date Time Source
SVVA TAF 2023/09/28 18:27 UTC NOAA

TAF TAF SVVA 281600Z 2818/2918 36002KT 9999 SCT016 TX31/2819Z TN21/2909Z
TEMPO 2820/2900 18005KT 9999 BKN016
TEMPO 2902/2906 VRB02KT 9999 SCT016

Example: see airport list